Latest Weather Observations for Adelaide (West Terrace / ngayirdapira)

IDS60801

Issued at 3:31 am CDT Sunday 24 March 2019 (issued every 10 minutes, with the page automatically refreshed every 10 minutes)

About weather observations | Map of weather stations | Latest weather observations for SA | Other Formats
Station Details ID: 023000 Name: ADELAIDE (WEST TERRACE / NGAYIRDAPIRA) Lat: -34.93 Lon: 138.58 Height: 29.32 m
Data from the previous 72 hours. | See also: Recent months at Adelaide (West Terrace / ngayirdapira)
Date/Time
CDT
Temp
°C
App
Temp
°C
Dew
Point
°C
Rel
Hum
%
Delta-T
°C
Wind Press
QNH
hPa
Press
MSL
hPa
Rain since
9am
mm
Dir  Spd
km/h
Gust
km/h
Spd
kts
Gust
kts
24/03:30am 20.4 22.4 16.0 76 2.6 CALM 0 0 0 0 1010.7 1010.6 0.0
24/03:00am 20.5 21.3 16.3 77 2.5 WNW 7 9 4 5 1010.9 1010.8 0.0
24/02:30am 20.7 21.4 15.5 72 3.1 N 6 9 3 5 1011.2 1011.1 0.0
24/02:00am 20.7 21.1 15.3 71 3.2 NE 7 9 4 5 1011.6 1011.5 0.0
24/01:30am 20.6 22.1 15.6 73 3.0 NNW 2 7 1 4 1011.7 1011.6 0.0
24/01:00am 19.9 21.6 15.1 74 2.8 CALM 0 0 0 0 1012.0 1011.9 0.0
24/12:30am 19.9 20.5 15.3 75 2.7 SW 6 7 3 4 1012.2 1012.1 0.0
24/12:00am 20.0 21.7 15.2 74 2.8 CALM 0 0 0 0 1012.6 1012.5 0.0
 
Date/Time
CDT
Temp
°C
App
Temp
°C
Dew
Point
°C
Rel
Hum
%
Delta-T
°C
Wind Press
QNH
hPa
Press
MSL
hPa
Rain since
9am
mm
Dir  Spd
km/h
Gust
km/h
Spd
kts
Gust
kts
23/11:30pm 20.1 20.6 15.1 73 2.9 WSW 6 9 3 5 1012.9 1012.8 0.0
23/11:00pm 19.7 21.3 14.9 74 2.8 CALM 0 0 0 0 1012.6 1012.5 0.0
23/10:30pm 20.2 21.1 15.2 73 3.0 N 4 7 2 4 1012.7 1012.6 0.0
23/10:00pm 20.3 21.9 14.9 71 3.2 CALM 0 0 0 0 1012.4 1012.3 0.0
23/09:30pm 20.8 22.1 15.1 70 3.4 E 2 7 1 4 1012.7 1012.6 0.0
23/09:00pm 20.8 21.3 14.9 69 3.5 SE 6 9 3 5 1012.8 1012.7 0.0
23/08:30pm 21.0 21.8 14.9 68 3.6 S 4 9 2 5 1013.0 1012.9 0.0
23/08:00pm 21.1 21.4 15.0 68 3.6 SSW 7 11 4 6 1013.1 1013.0 0.0
23/07:30pm 21.3 21.5 14.7 66 3.9 SW 7 11 4 6 1012.7 1012.6 0.0
23/07:00pm 21.3 21.1 14.7 66 3.9 SW 9 13 5 7 1012.5 1012.4 0.0
23/06:30pm 21.6 21.8 14.7 65 4.1 SW 7 13 4 7 1012.0 1011.9 0.0
23/06:00pm 22.4 21.9 13.7 58 5.1 WSW 9 17 5 9 1011.5 1011.4 0.0
23/05:30pm 22.9 22.1 12.8 53 5.8 WSW 9 17 5 9 1010.9 1010.8 0.0
23/05:00pm 23.4 22.7 13.3 53 5.9 W 9 13 5 7 1010.6 1010.5 0.0
23/04:30pm 23.4 22.4 13.3 53 5.9 WSW 11 17 6 9 1010.8 1010.7 0.0
23/04:00pm 23.8 23.0 12.8 50 6.3 SW 9 15 5 8 1010.7 1010.6 0.0
23/03:30pm 24.4 23.3 13.0 49 6.6 WSW 11 19 6 10 1010.6 1010.5 0.0
23/03:00pm 23.8 23.6 14.8 57 5.4 SW 9 17 5 9 1010.9 1010.8 0.0
23/02:30pm 23.2 23.1 15.0 60 4.9 SW 9 17 5 9 1011.0 1010.9 0.0
23/02:00pm 23.2 22.7 15.0 60 4.9 SW 11 19 6 10 1011.5 1011.4 0.0
23/01:30pm 22.2 21.3 14.8 63 4.4 WSW 13 20 7 11 1011.6 1011.5 0.0
23/01:00pm 22.3 21.3 14.7 62 4.5 WSW 13 20 7 11 1011.7 1011.6 0.0
23/12:30pm 22.5 21.9 15.6 65 4.1 SW 13 22 7 12 1011.8 1011.7 0.0
23/12:00pm 22.8 22.4 16.1 66 4.1 WSW 13 20 7 11 1011.8 1011.7 0.0
23/11:30am 22.7 23.2 16.5 68 3.8 WSW 9 17 5 9 1011.7 1011.6 0.0
23/11:00am 22.0 21.5 15.8 68 3.7 SW 13 17 7 9 1011.8 1011.7 0.0
23/10:30am 21.9 21.7 16.6 72 3.2 WSW 13 22 7 12 1011.8 1011.7 0.0
23/10:00am 21.7 21.5 16.6 73 3.1 WSW 13 19 7 10 1011.5 1011.4 0.0
23/09:30am 21.4 21.8 17.2 77 2.6 W 11 15 6 8 1011.1 1011.0 0.0
23/09:00am 21.5 22.7 16.9 75 2.8 W 6 11 3 6 1010.6 1010.5 0.0
23/08:30am 20.1 21.9 17.3 84 1.7 W 4 7 2 4 1010.5 1010.4 0.0
23/08:00am 19.1 21.4 17.6 91 0.9 N 2 6 1 3 1009.9 1009.8 0.0
23/07:30am 18.8 21.2 17.1 90 1.0 CALM 0 0 0 0 1009.6 1009.5 0.0
23/07:01am 19.7 22.5 18.0 90 1.0 CALM 0 0 0 0 1009.3 1009.2 0.0
23/07:00am 19.7 22.4 17.8 89 1.2 CALM 0 0 0 0 1009.3 1009.2 0.0
23/06:30am 20.2 21.9 18.1 88 1.3 SSW 6 9 3 5 1009.4 1009.3 0.0
23/06:00am 19.8 22.0 18.3 91 0.9 SSW 4 7 2 4 1009.0 1008.9 0.0
23/05:56am 19.8 22.0 18.3 91 0.9 SSW 4 7 2 4 1008.9 1008.8 0.0
23/05:32am 19.8 21.9 18.1 90 1.1 SSW 4 7 2 4 1008.6 1008.5 0.0
23/05:30am 19.8 21.4 17.9 89 1.2 SW 6 6 3 3 1008.6 1008.5 0.0
23/05:00am 20.6 22.4 18.7 89 1.2 SW 7 9 4 5 1008.7 1008.6 0.0
23/04:31am 21.0 23.2 19.1 89 1.2 WSW 6 11 3 6 1008.5 1008.4 0.0
23/04:30am 21.0 23.2 19.1 89 1.2 SW 6 11 3 6 1008.5 1008.4 0.0
23/04:00am 21.2 23.2 19.1 88 1.3 SW 7 9 4 5 1008.5 1008.4 0.0
23/03:30am 21.4 24.7 19.1 87 1.5 CALM 0 0 0 0 1008.6 1008.5 0.0
23/03:12am 21.4 23.9 19.0 86 1.5 SW 4 7 2 4 1008.8 1008.7 0.0
23/03:00am 21.4 23.9 19.0 86 1.5 W 4 7 2 4 1008.9 1008.8 0.0
23/02:53am 21.5 23.6 18.9 85 1.6 WSW 6 7 3 4 1009.0 1008.9 0.0
23/02:30am 21.4 23.6 18.4 83 1.9 WSW 4 7 2 4 1008.9 1008.8 0.0
23/02:00am 21.9 23.7 18.3 80 2.3 N 6 9 3 5 1008.9 1008.8 0.0
23/01:30am 22.1 23.9 18.7 81 2.1 N 7 11 4 6 1008.8 1008.7 0.0
23/01:00am 22.2 23.3 18.0 77 2.6 NNW 9 13 5 7 1009.0 1008.9 0.0
23/12:30am 22.1 24.0 17.7 76 2.7 N 4 7 2 4 1008.5 1008.4 0.0
23/12:00am 21.9 23.5 17.9 78 2.5 NNW 6 7 3 4 1008.7 1008.6 0.0
 
Date/Time
CDT
Temp
°C
App
Temp
°C
Dew
Point
°C
Rel
Hum
%
Delta-T
°C
Wind Press
QNH
hPa
Press
MSL
hPa
Rain since
9am
mm
Dir  Spd
km/h
Gust
km/h
Spd
kts
Gust
kts
22/11:30pm 22.5 25.2 17.8 75 2.9 CALM 0 4 0 2 1008.6 1008.5 0.0
22/11:00pm 22.7 25.0 17.6 73 3.2 WSW 2 6 1 3 1009.6 1009.5 0.0
22/10:30pm 23.2 24.4 17.4 70 3.6 WNW 7 9 4 5 1010.0 1009.9 0.0
22/10:00pm 23.4 25.1 17.2 68 3.8 NW 4 9 2 5 1010.0 1009.9 0.0
22/09:30pm 23.6 24.5 16.6 65 4.3 WNW 7 9 4 5 1009.6 1009.5 0.0
22/09:00pm 23.6 24.9 17.1 67 4.0 W 6 9 3 5 1009.4 1009.3 0.0
22/08:30pm 23.3 25.1 17.5 70 3.6 SW 4 9 2 5 1009.2 1009.1 0.0
22/08:00pm 23.7 24.1 18.1 71 3.5 WSW 13 22 7 12 1009.1 1009.0 0.0
22/07:30pm 24.4 25.8 17.9 67 4.1 WSW 7 11 4 6 1008.5 1008.4 0.0
22/07:00pm 24.5 25.5 17.7 66 4.3 SSW 9 17 5 9 1008.5 1008.4 0.0
22/06:30pm 25.0 25.5 17.5 63 4.7 SSW 11 17 6 9 1008.3 1008.2 0.0
22/06:00pm 25.3 25.7 18.2 64 4.5 SW 13 20 7 11 1008.1 1008.0 0.0
22/05:30pm 26.7 26.4 18.3 60 5.4 W 17 26 9 14 1007.7 1007.6 0.0
22/05:00pm 31.4 30.8 14.5 35 10.3 SW 11 15 6 8 1007.1 1007.0 0.0
22/04:30pm 31.9 30.6 13.6 32 11.1 SW 13 17 7 9 1007.3 1007.2 0.0
22/04:00pm 31.6 30.9 14.3 35 10.5 WSW 11 17 6 9 1007.7 1007.6 0.0
22/03:30pm 31.1 29.5 13.8 34 10.5 WSW 15 19 8 10 1008.0 1007.9 0.0
22/03:00pm 30.9 30.0 13.7 35 10.4 WSW 11 19 6 10 1008.4 1008.3 0.0
22/02:30pm 31.0 30.2 15.0 38 9.8 W 13 20 7 11 1009.0 1008.9 0.0
22/02:00pm 29.2 28.5 14.2 40 9.0 SW 11 17 6 9 1009.6 1009.5 0.0
22/01:30pm 28.0 26.5 14.3 43 8.2 SW 15 20 8 11 1010.3 1010.2 0.0
22/01:00pm 28.5 26.9 15.1 44 8.2 WSW 17 28 9 15 1010.7 1010.6 0.0
22/12:30pm 29.5 27.4 12.4 35 10.0 NNE 15 24 8 13 1011.1 1011.0 0.0
22/12:00pm 29.1 28.4 12.1 35 9.9 NNW 7 13 4 7 1011.4 1011.3 0.0
22/11:30am 27.6 27.5 13.2 41 8.5 NW 6 11 3 6 1011.9 1011.8 0.0
22/11:00am 26.5 26.6 13.9 45 7.5 NW 6 9 3 5 1012.1 1012.0 0.0
22/10:30am 25.0 25.3 13.5 48 6.7 WSW 4 9 2 5 1012.3 1012.2 0.0
22/10:00am 23.8 23.9 13.9 54 5.8 NNW 6 9 3 5 1012.5 1012.4 0.0
22/09:30am 22.5 22.4 13.8 58 5.1 WNW 7 9 4 5 1012.5 1012.4 0.0
22/09:00am 21.0 22.0 14.2 65 4.0 W 2 9 1 5 1012.6 1012.5 0.0
22/08:30am 18.6 20.0 14.5 77 2.4 CALM 0 0 0 0 1012.7 1012.6 0.0
22/08:00am 16.8 18.0 13.9 83 1.6 CALM 0 0 0 0 1012.8 1012.7 0.0
22/07:30am 16.0 17.0 13.3 84 1.5 CALM 0 0 0 0 1012.7 1012.6 0.0
22/07:00am 15.9 17.0 13.6 86 1.3 CALM 0 0 0 0 1012.7 1012.6 0.0
22/06:30am 16.2 17.4 13.7 85 1.4 CALM 0 0 0 0 1012.9 1012.8 0.0
22/06:00am 15.7 16.8 13.5 87 1.2 CALM 0 0 0 0 1012.9 1012.8 0.0
22/05:30am 15.8 16.9 13.6 87 1.2 CALM 0 0 0 0 1012.8 1012.7 0.0
22/05:00am 16.0 17.1 13.5 85 1.4 CALM 0 0 0 0 1012.9 1012.8 0.0
22/04:30am 16.5 17.7 13.8 84 1.5 CALM 0 0 0 0 1013.0 1012.9 0.0
22/04:00am 16.8 18.0 13.9 83 1.6 CALM 0 0 0 0 1013.3 1013.2 0.0
22/03:30am 16.7 17.9 13.8 83 1.6 CALM 0 0 0 0 1013.2 1013.1 0.0
22/03:00am 16.9 18.2 14.0 83 1.6 CALM 0 0 0 0 1013.5 1013.4 0.0
22/02:30am 16.8 18.0 13.7 82 1.8 CALM 0 0 0 0 1013.4 1013.3 0.0
22/02:00am 16.5 17.7 13.8 84 1.5 CALM 0 0 0 0 1013.5 1013.4 0.0
22/01:30am 16.8 17.1 13.3 80 2.0 S 4 7 2 4 1013.5 1013.4 0.0
22/01:00am 17.4 18.3 13.9 80 2.0 S 2 7 1 4 1013.8 1013.7 0.0
22/12:30am 17.6 17.7 13.9 79 2.1 S 6 9 3 5 1014.0 1013.9 0.0
22/12:00am 17.8 17.9 13.9 78 2.2 S 6 7 3 4 1014.2 1014.1 0.0
 
Date/Time
CDT
Temp
°C
App
Temp
°C
Dew
Point
°C
Rel
Hum
%
Delta-T
°C
Wind Press
QNH
hPa
Press
MSL
hPa
Rain since
9am
mm
Dir  Spd
km/h
Gust
km/h
Spd
kts
Gust
kts
21/11:30pm 18.2 18.2 13.7 75 2.6 SSW 6 7 3 4 1014.4 1014.3 0.0
21/11:00pm 19.1 19.2 13.9 72 3.0 SE 6 13 3 7 1014.6 1014.5 0.0
21/10:30pm 19.0 18.5 13.8 72 3.0 SSE 9 15 5 8 1014.8 1014.7 0.0
21/10:00pm 19.7 18.5 13.9 69 3.3 SE 13 24 7 13 1014.7 1014.6 0.0
21/09:30pm 19.6 19.0 13.5 68 3.5 S 9 15 5 8 1014.8 1014.7 0.0
21/09:00pm 19.7 19.4 13.2 66 3.7 S 7 11 4 6 1014.5 1014.4 0.0
21/08:30pm 20.2 19.9 13.2 64 4.0 S 7 11 4 6 1014.4 1014.3 0.0
21/08:00pm 20.8 20.0 13.0 61 4.4 SE 9 17 5 9 1014.2 1014.1 0.0
21/07:30pm 21.3 19.8 13.0 59 4.7 S 13 19 7 10 1014.0 1013.9 0.0
21/07:00pm 22.8 22.0 13.0 54 5.6 SSE 9 11 5 6 1013.8 1013.7 0.0
21/06:30pm 23.4 22.3 13.0 52 6.0 S 11 15 6 8 1013.7 1013.6 0.0
21/06:00pm 23.8 22.7 13.1 51 6.2 SE 11 20 6 11 1013.4 1013.3 0.0
21/05:30pm 25.0 23.4 12.9 47 7.0 SSE 13 20 7 11 1013.3 1013.2 0.0
21/05:00pm 25.8 24.7 13.0 45 7.5 SSE 11 20 6 11 1013.3 1013.2 0.0
21/04:30pm 26.1 23.6 12.2 42 8.0 SE 17 24 9 13 1013.2 1013.1 0.0
21/04:00pm 27.2 25.2 12.8 41 8.4 SE 15 28 8 15 1013.5 1013.4 0.0
21/03:30pm 27.9 25.9 12.7 39 8.9 S 15 28 8 15 1013.6 1013.5 0.0
21/03:00pm 28.0 26.2 12.0 37 9.3 SSE 13 20 7 11 1013.7 1013.6 0.0
21/02:30pm 28.2 26.8 13.3 40 8.8 SSE 13 22 7 12 1014.1 1014.0 0.0
21/02:00pm 26.8 24.7 12.5 41 8.3 SSE 15 20 8 11 1014.6 1014.5 0.0
21/01:30pm 26.0 23.9 12.5 43 7.8 SSE 15 20 8 11 1014.8 1014.7 0.0
21/01:00pm 26.8 24.7 12.5 41 8.3 SSE 15 20 8 11 1015.1 1015.0 0.0
21/12:30pm 26.7 25.1 12.7 42 8.1 SSW 13 19 7 10 1015.4 1015.3 0.0
21/12:00pm 25.8 25.0 13.0 45 7.5 SSW 9 17 5 9 1015.6 1015.5 0.0
21/11:30am 25.0 24.5 12.6 46 7.1 SE 7 11 4 6 1016.0 1015.9 0.0
21/11:00am 23.7 22.6 12.0 48 6.6 SE 9 13 5 7 1016.3 1016.2 0.0
21/10:30am 23.7 23.3 13.0 51 6.2 E 7 15 4 8 1016.5 1016.4 0.0
21/10:00am 22.4 21.6 12.9 55 5.4 S 9 15 5 8 1016.4 1016.3 0.0
21/09:30am 21.9 22.1 13.0 57 5.1 SSW 4 11 2 6 1016.1 1016.0 0.0
21/09:00am 21.1 21.1 12.5 58 4.9 S 4 7 2 4 1015.7 1015.6 0.0
21/08:30am 19.4 20.7 14.0 71 3.1 CALM 0 2 0 1 1015.6 1015.5 0.0
21/08:00am 17.2 18.5 14.1 82 1.8 CALM 0 0 0 0 1015.3 1015.2 0.0
21/07:30am 16.5 17.7 13.8 84 1.5 CALM 0 0 0 0 1014.9 1014.8 0.0
21/07:00am 17.2 17.9 13.5 79 2.1 NNE 2 6 1 3 1014.8 1014.7 0.0
21/06:30am 16.9 18.0 13.4 80 2.0 CALM 0 6 0 3 1014.7 1014.6 0.0
21/06:00am 17.6 18.6 13.3 76 2.4 CALM 0 0 0 0 1014.4 1014.3 0.0
21/05:30am 19.6 19.1 13.8 69 3.3 E 9 13 5 7 1014.2 1014.1 0.0
21/05:00am 17.3 17.7 13.6 79 2.1 NNE 4 9 2 5 1014.5 1014.4 0.0
21/04:30am 17.9 19.1 13.8 77 2.3 CALM 0 0 0 0 1014.4 1014.3 0.0
21/04:00am 17.8 19.0 13.7 77 2.3 CALM 0 0 0 0 1014.2 1014.1 0.0

Other formats

Comma delimited format used in spreadsheet applications
http://www.bom.gov.au/fwo/IDS60801/IDS60801.94648.axf

JavaScript Object Notation format (JSON) in row-major order
http://www.bom.gov.au/fwo/IDS60801/IDS60801.94648.json

Data quality

Most of these data are generated automatically and are frequently updated. Quality checks on data are not normally performed. It is possible for incorrect values to appear. Refer to information at About Latest Weather Observations and please check the disclaimer before using these data.